sensor_id;sensor_type;location;lat;lon;timestamp;pressure;altitude;pressure_sealevel;temperature;humidity
68965;BME280;56017;48.680;8.998;2023-03-21T00:00:04;96920;;;10.1;75.5
68965;BME280;56017;48.680;8.998;2023-03-21T00:02:35;96920;;;10;76
68965;BME280;56017;48.680;8.998;2023-03-21T00:05:06;96920;;;10;76
68965;BME280;56017;48.680;8.998;2023-03-21T00:07:37;96920;;;10.1;76
68965;BME280;56017;48.680;8.998;2023-03-21T00:10:09;96920;;;10.2;75.5
68965;BME280;56017;48.680;8.998;2023-03-21T00:12:39;96910;;;10.2;75.5
68965;BME280;56017;48.680;8.998;2023-03-21T00:15:11;96910;;;10.2;75.5
68965;BME280;56017;48.680;8.998;2023-03-21T00:17:41;96910;;;10.3;75
68965;BME280;56017;48.680;8.998;2023-03-21T00:20:12;96910;;;10.3;75
68965;BME280;56017;48.680;8.998;2023-03-21T00:22:43;96900;;;10.4;75
68965;BME280;56017;48.680;8.998;2023-03-21T00:25:21;96900;;;10.4;74.5
68965;BME280;56017;48.680;8.998;2023-03-21T00:27:45;96900;;;10.4;75
68965;BME280;56017;48.680;8.998;2023-03-21T00:30:16;96900;;;10.4;75
68965;BME280;56017;48.680;8.998;2023-03-21T00:32:47;96900;;;10.4;74.5
68965;BME280;56017;48.680;8.998;2023-03-21T00:35:18;96890;;;10.4;75
68965;BME280;56017;48.680;8.998;2023-03-21T00:37:49;96890;;;10.5;74.5
68965;BME280;56017;48.680;8.998;2023-03-21T00:40:20;96890;;;10.4;75
68965;BME280;56017;48.680;8.998;2023-03-21T00:42:51;96890;;;10.3;75
68965;BME280;56017;48.680;8.998;2023-03-21T00:45:22;96880;;;10.3;75
68965;BME280;56017;48.680;8.998;2023-03-21T00:47:53;96880;;;10.3;75
68965;BME280;56017;48.680;8.998;2023-03-21T00:50:24;96880;;;10.4;75
68965;BME280;56017;48.680;8.998;2023-03-21T00:53:01;96870;;;10.3;75
68965;BME280;56017;48.680;8.998;2023-03-21T00:55:26;96880;;;10.3;75.5
68965;BME280;56017;48.680;8.998;2023-03-21T00:57:57;96870;;;10.3;75
68965;BME280;56017;48.680;8.998;2023-03-21T01:00:28;96870;;;10.4;75
68965;BME280;56017;48.680;8.998;2023-03-21T01:03:06;96870;;;10.4;75
68965;BME280;56017;48.680;8.998;2023-03-21T01:05:31;96870;;;10.4;75
68965;BME280;56017;48.680;8.998;2023-03-21T01:08:01;96870;;;10.5;74.5
68965;BME280;56017;48.680;8.998;2023-03-21T01:10:32;96860;;;10.6;74.5
68965;BME280;56017;48.680;8.998;2023-03-21T01:13:10;96860;;;10.5;74.5
68965;BME280;56017;48.680;8.998;2023-03-21T01:15:34;96850;;;10.4;74.5
68965;BME280;56017;48.680;8.998;2023-03-21T01:18:04;96850;;;10.3;74.5
68965;BME280;56017;48.680;8.998;2023-03-21T01:20:38;96850;;;10.1;75
68965;BME280;56017;48.680;8.998;2023-03-21T01:23:07;96850;;;10.1;75.5
68965;BME280;56017;48.680;8.998;2023-03-21T01:25:37;96860;;;10.1;75.5
68965;BME280;56017;48.680;8.998;2023-03-21T01:28:08;96860;;;10.2;75
68965;BME280;56017;48.680;8.998;2023-03-21T01:30:43;96860;;;10.2;75
68965;BME280;56017;48.680;8.998;2023-03-21T01:33:18;96860;;;10.2;75
68965;BME280;56017;48.680;8.998;2023-03-21T01:35:42;96860;;;10.3;75
68965;BME280;56017;48.680;8.998;2023-03-21T01:38:12;96850;;;10.4;74.5
68965;BME280;56017;48.680;8.998;2023-03-21T01:40:44;96860;;;10.4;74.5
68965;BME280;56017;48.680;8.998;2023-03-21T01:46:49;96850;;;10;75.5
68965;BME280;56017;48.680;8.998;2023-03-21T01:48:16;96850;;;9.9;75.5
68965;BME280;56017;48.680;8.998;2023-03-21T01:50:47;96850;;;9.9;76
68965;BME280;56017;48.680;8.998;2023-03-21T01:53:18;96840;;;9.9;76
68965;BME280;56017;48.680;8.998;2023-03-21T01:55:49;96840;;;10.1;75.5
68965;BME280;56017;48.680;8.998;2023-03-21T01:58:20;96840;;;10.3;75
68965;BME280;56017;48.680;8.998;2023-03-21T02:00:51;96840;;;10.3;75
68965;BME280;56017;48.680;8.998;2023-03-21T02:03:22;96840;;;10.1;75
68965;BME280;56017;48.680;8.998;2023-03-21T02:05:55;96840;;;10.1;75
68965;BME280;56017;48.680;8.998;2023-03-21T02:08:24;96840;;;10.1;74.5
68965;BME280;56017;48.680;8.998;2023-03-21T02:10:55;96840;;;10;74.5
68965;BME280;56017;48.680;8.998;2023-03-21T02:13:32;96840;;;9.9;75
68965;BME280;56017;48.680;8.998;2023-03-21T02:16:00;96840;;;10;75
68965;BME280;56017;48.680;8.998;2023-03-21T02:18:46;96840;;;10;75
68965;BME280;56017;48.680;8.998;2023-03-21T02:23:35;96830;;;9.7;75.5
68965;BME280;56017;48.680;8.998;2023-03-21T02:26:05;96830;;;9.6;76
68965;BME280;56017;48.680;8.998;2023-03-21T02:28:39;96830;;;9.5;76
68965;BME280;56017;48.680;8.998;2023-03-21T02:31:05;96830;;;9.6;76
68965;BME280;56017;48.680;8.998;2023-03-21T02:34:41;96820;;;9.8;75
68965;BME280;56017;48.680;8.998;2023-03-21T02:36:22;96820;;;9.9;75
68965;BME280;56017;48.680;8.998;2023-03-21T02:39:09;96820;;;9.9;75
68965;BME280;56017;48.680;8.998;2023-03-21T02:41:10;96820;;;9.9;75
68965;BME280;56017;48.680;8.998;2023-03-21T02:43:51;96820;;;10;74.5
68965;BME280;56017;48.680;8.998;2023-03-21T02:46:09;96820;;;10;74.5
68965;BME280;56017;48.680;8.998;2023-03-21T02:48:44;96820;;;9.9;74.5
68965;BME280;56017;48.680;8.998;2023-03-21T02:51:11;96820;;;9.8;75
68965;BME280;56017;48.680;8.998;2023-03-21T02:53:42;96820;;;9.9;75
68965;BME280;56017;48.680;8.998;2023-03-21T02:56:12;96820;;;9.7;75
68965;BME280;56017;48.680;8.998;2023-03-21T02:58:43;96820;;;9.5;75.5
68965;BME280;56017;48.680;8.998;2023-03-21T03:01:14;96820;;;9.5;75.5
68965;BME280;56017;48.680;8.998;2023-03-21T03:03:45;96820;;;9.6;75
68965;BME280;56017;48.680;8.998;2023-03-21T03:06:18;96820;;;9.6;75
68965;BME280;56017;48.680;8.998;2023-03-21T03:11:25;96810;;;9.5;75
68965;BME280;56017;48.680;8.998;2023-03-21T03:16:25;96810;;;9.4;75.5
68965;BME280;56017;48.680;8.998;2023-03-21T03:18:52;96810;;;9.4;75.5
68965;BME280;56017;48.680;8.998;2023-03-21T03:21:25;96810;;;9.4;75.5
68965;BME280;56017;48.680;8.998;2023-03-21T03:23:54;96810;;;9.4;75.5
68965;BME280;56017;48.680;8.998;2023-03-21T03:26:25;96810;;;9.4;75
68965;BME280;56017;48.680;8.998;2023-03-21T03:28:57;96810;;;9.5;75
68965;BME280;56017;48.680;8.998;2023-03-21T03:31:26;96810;;;9.5;75
68965;BME280;56017;48.680;8.998;2023-03-21T03:33:58;96800;;;9.5;74.5
68965;BME280;56017;48.680;8.998;2023-03-21T03:36:29;96800;;;9.4;75
68965;BME280;56017;48.680;8.998;2023-03-21T03:38:59;96810;;;9.4;75
68965;BME280;56017;48.680;8.998;2023-03-21T03:41:29;96800;;;9.4;75
68965;BME280;56017;48.680;8.998;2023-03-21T03:44:00;96800;;;9.5;74.5
68965;BME280;56017;48.680;8.998;2023-03-21T03:46:34;96800;;;9.4;74.5
68965;BME280;56017;48.680;8.998;2023-03-21T03:49:12;96800;;;9.3;74.5
68965;BME280;56017;48.680;8.998;2023-03-21T03:51:36;96790;;;9.3;75
68965;BME280;56017;48.680;8.998;2023-03-21T03:54:05;96790;;;9.3;74.5
68965;BME280;56017;48.680;8.998;2023-03-21T03:56:35;96790;;;9.2;74.5
68965;BME280;56017;48.680;8.998;2023-03-21T03:59:06;96790;;;9.1;75
68965;BME280;56017;48.680;8.998;2023-03-21T04:01:37;96790;;;9.1;75
68965;BME280;56017;48.680;8.998;2023-03-21T04:04:15;96790;;;9;75
68965;BME280;56017;48.680;8.998;2023-03-21T04:06:39;96780;;;8.8;75.5
68965;BME280;56017;48.680;8.998;2023-03-21T04:09:10;96790;;;8.7;76
68965;BME280;56017;48.680;8.998;2023-03-21T04:11:41;96790;;;8.8;76
68965;BME280;56017;48.680;8.998;2023-03-21T04:14:19;96790;;;8.8;75.5
68965;BME280;56017;48.680;8.998;2023-03-21T04:16:43;96790;;;8.7;75.5
68965;BME280;56017;48.680;8.998;2023-03-21T04:19:21;96790;;;8.6;75.5
68965;BME280;56017;48.680;8.998;2023-03-21T04:21:45;96780;;;8.6;75.5
68965;BME280;56017;48.680;8.998;2023-03-21T04:24:16;96790;;;8.6;75.5
68965;BME280;56017;48.680;8.998;2023-03-21T04:26:47;96790;;;8.4;75.5
68965;BME280;56017;48.680;8.998;2023-03-21T04:29:18;96790;;;8.4;75.5
68965;BME280;56017;48.680;8.998;2023-03-21T04:31:49;96780;;;8.2;75.5
68965;BME280;56017;48.680;8.998;2023-03-21T04:34:20;96780;;;8.2;76
68965;BME280;56017;48.680;8.998;2023-03-21T04:36:51;96780;;;8.1;76
68965;BME280;56017;48.680;8.998;2023-03-21T04:39:22;96790;;;8;76
68965;BME280;56017;48.680;8.998;2023-03-21T04:41:59;96790;;;7.9;76
68965;BME280;56017;48.680;8.998;2023-03-21T04:44:24;96790;;;7.9;76
68965;BME280;56017;48.680;8.998;2023-03-21T04:46:55;96790;;;7.8;76.5
68965;BME280;56017;48.680;8.998;2023-03-21T04:49:32;96790;;;7.8;76
68965;BME280;56017;48.680;8.998;2023-03-21T04:51:57;96790;;;7.8;76
68965;BME280;56017;48.680;8.998;2023-03-21T04:56:58;96790;;;7.3;76
68965;BME280;56017;48.680;8.998;2023-03-21T04:59:29;96790;;;7.1;76
68965;BME280;56017;48.680;8.998;2023-03-21T05:02:00;96790;;;7;76
68965;BME280;56017;48.680;8.998;2023-03-21T05:04:38;96790;;;6.9;76
68965;BME280;56017;48.680;8.998;2023-03-21T05:07:02;96790;;;6.9;76
68965;BME280;56017;48.680;8.998;2023-03-21T05:09:33;96800;;;7;76
68965;BME280;56017;48.680;8.998;2023-03-21T05:12:11;96800;;;7;76
68965;BME280;56017;48.680;8.998;2023-03-21T05:14:35;96800;;;7;75.5
68965;BME280;56017;48.680;8.998;2023-03-21T05:17:06;96800;;;6.9;75.5
68965;BME280;56017;48.680;8.998;2023-03-21T05:19:37;96800;;;6.9;76
68965;BME280;56017;48.680;8.998;2023-03-21T05:22:09;96800;;;7;76
68965;BME280;56017;48.680;8.998;2023-03-21T05:24:39;96800;;;7;76
68965;BME280;56017;48.680;8.998;2023-03-21T05:27:10;96790;;;7.1;76
68965;BME280;56017;48.680;8.998;2023-03-21T05:29:41;96790;;;7.2;76
68965;BME280;56017;48.680;8.998;2023-03-21T05:32:12;96790;;;7.2;75.5
68965;BME280;56017;48.680;8.998;2023-03-21T05:34:43;96800;;;7.2;75.5
68965;BME280;56017;48.680;8.998;2023-03-21T05:37:14;96800;;;7.4;75.5
68965;BME280;56017;48.680;8.998;2023-03-21T05:39:45;96800;;;7.6;75
68965;BME280;56017;48.680;8.998;2023-03-21T05:42:16;96790;;;7.6;75
68965;BME280;56017;48.680;8.998;2023-03-21T05:44:47;96790;;;7.7;75.5
68965;BME280;56017;48.680;8.998;2023-03-21T05:47:18;96800;;;7.7;75.5
68965;BME280;56017;48.680;8.998;2023-03-21T05:49:49;96800;;;7.7;75.5
68965;BME280;56017;48.680;8.998;2023-03-21T05:52:20;96800;;;7.7;75.5
68965;BME280;56017;48.680;8.998;2023-03-21T05:54:51;96800;;;7.7;75
68965;BME280;56017;48.680;8.998;2023-03-21T05:57:22;96800;;;7.8;75
68965;BME280;56017;48.680;8.998;2023-03-21T05:59:53;96800;;;7.8;75
68965;BME280;56017;48.680;8.998;2023-03-21T06:02:24;96800;;;7.8;75
68965;BME280;56017;48.680;8.998;2023-03-21T06:04:55;96810;;;7.8;75
68965;BME280;56017;48.680;8.998;2023-03-21T06:07:26;96810;;;7.8;75.5
68965;BME280;56017;48.680;8.998;2023-03-21T06:09:57;96810;;;7.7;75.5
68965;BME280;56017;48.680;8.998;2023-03-21T06:12:28;96800;;;7.8;75.5
68965;BME280;56017;48.680;8.998;2023-03-21T06:14:59;96800;;;7.8;75.5
68965;BME280;56017;48.680;8.998;2023-03-21T06:17:31;96810;;;7.9;75.5
68965;BME280;56017;48.680;8.998;2023-03-21T06:20:07;96800;;;7.9;75
68965;BME280;56017;48.680;8.998;2023-03-21T06:22:32;96800;;;8;75
68965;BME280;56017;48.680;8.998;2023-03-21T06:25:03;96800;;;7.9;75
68965;BME280;56017;48.680;8.998;2023-03-21T06:27:33;96800;;;7.9;75.5
68965;BME280;56017;48.680;8.998;2023-03-21T06:30:05;96800;;;7.9;75.5
68965;BME280;56017;48.680;8.998;2023-03-21T06:32:35;96800;;;7.9;75.5
68965;BME280;56017;48.680;8.998;2023-03-21T06:35:06;96800;;;8;75.5
68965;BME280;56017;48.680;8.998;2023-03-21T06:37:37;96800;;;8;75.5
68965;BME280;56017;48.680;8.998;2023-03-21T06:40:08;96790;;;8;75
68965;BME280;56017;48.680;8.998;2023-03-21T06:42:39;96790;;;8.1;75.5
68965;BME280;56017;48.680;8.998;2023-03-21T06:45:10;96790;;;8.2;75.5
68965;BME280;56017;48.680;8.998;2023-03-21T06:47:41;96790;;;8.2;75.5
68965;BME280;56017;48.680;8.998;2023-03-21T06:50:19;96790;;;8.3;75.5
68965;BME280;56017;48.680;8.998;2023-03-21T06:52:43;96790;;;8.5;75
68965;BME280;56017;48.680;8.998;2023-03-21T06:55:14;96790;;;8.5;75
68965;BME280;56017;48.680;8.998;2023-03-21T06:57:45;96790;;;8.7;75
68965;BME280;56017;48.680;8.998;2023-03-21T07:00:16;96790;;;8.6;75.5
68965;BME280;56017;48.680;8.998;2023-03-21T07:02:47;96790;;;8.6;75.5
68965;BME280;56017;48.680;8.998;2023-03-21T07:05:18;96790;;;8.6;75.5
68965;BME280;56017;48.680;8.998;2023-03-21T07:07:49;96780;;;8.7;75.5
68965;BME280;56017;48.680;8.998;2023-03-21T07:10:20;96780;;;8.8;75.5
68965;BME280;56017;48.680;8.998;2023-03-21T07:12:50;96780;;;8.8;75.5
68965;BME280;56017;48.680;8.998;2023-03-21T07:15:21;96780;;;8.8;75.5
68965;BME280;56017;48.680;8.998;2023-03-21T07:17:52;96780;;;8.9;75.5
68965;BME280;56017;48.680;8.998;2023-03-21T07:20:23;96780;;;9;75.5
68965;BME280;56017;48.680;8.998;2023-03-21T07:22:54;96790;;;9.1;76
68965;BME280;56017;48.680;8.998;2023-03-21T07:25:32;96790;;;9.3;75.5
68965;BME280;56017;48.680;8.998;2023-03-21T07:27:56;96790;;;9.4;75.5
68965;BME280;56017;48.680;8.998;2023-03-21T07:30:27;96790;;;9.5;75.5
68965;BME280;56017;48.680;8.998;2023-03-21T07:32:58;96780;;;9.7;75.5
68965;BME280;56017;48.680;8.998;2023-03-21T07:35:29;96790;;;9.9;75
68965;BME280;56017;48.680;8.998;2023-03-21T07:38:00;96790;;;10;75.5
68965;BME280;56017;48.680;8.998;2023-03-21T07:40:31;96790;;;10.1;75.5
68965;BME280;56017;48.680;8.998;2023-03-21T07:43:02;96790;;;10.3;75.5
68965;BME280;56017;48.680;8.998;2023-03-21T07:45:33;96790;;;10.5;75.5
68965;BME280;56017;48.680;8.998;2023-03-21T07:48:04;96780;;;10.6;75.5
68965;BME280;56017;48.680;8.998;2023-03-21T07:50:35;96780;;;10.9;75.5
68965;BME280;56017;48.680;8.998;2023-03-21T07:53:06;96780;;;11.1;75
68965;BME280;56017;48.680;8.998;2023-03-21T07:55:37;96780;;;11.2;75.5
68965;BME280;56017;48.680;8.998;2023-03-21T07:58:08;96780;;;11.3;75
68965;BME280;56017;48.680;8.998;2023-03-21T08:00:39;96780;;;11.3;75
68965;BME280;56017;48.680;8.998;2023-03-21T08:03:16;96770;;;11.4;75.5
68965;BME280;56017;48.680;8.998;2023-03-21T08:05:41;96770;;;11.5;75.5
68965;BME280;56017;48.680;8.998;2023-03-21T08:08:12;96770;;;11.7;75
68965;BME280;56017;48.680;8.998;2023-03-21T08:10:43;96770;;;11.8;75
68965;BME280;56017;48.680;8.998;2023-03-21T08:13:14;96770;;;11.8;75
68965;BME280;56017;48.680;8.998;2023-03-21T08:15:45;96770;;;11.8;75
68965;BME280;56017;48.680;8.998;2023-03-21T08:18:16;96770;;;11.8;75
68965;BME280;56017;48.680;8.998;2023-03-21T08:20:54;96770;;;11.8;75
68965;BME280;56017;48.680;8.998;2023-03-21T08:23:24;96770;;;11.9;75.5
68965;BME280;56017;48.680;8.998;2023-03-21T08:25:52;96760;;;12;75.5
68965;BME280;56017;48.680;8.998;2023-03-21T08:28:20;96760;;;12.2;75.5
68965;BME280;56017;48.680;8.998;2023-03-21T08:30:57;96760;;;12.3;75
68965;BME280;56017;48.680;8.998;2023-03-21T08:33:22;96760;;;12.4;75
68965;BME280;56017;48.680;8.998;2023-03-21T08:35:52;96760;;;12.5;75
68965;BME280;56017;48.680;8.998;2023-03-21T08:38:23;96750;;;12.4;75.5
68965;BME280;56017;48.680;8.998;2023-03-21T08:40:55;96750;;;12.5;75
68965;BME280;56017;48.680;8.998;2023-03-21T08:43:26;96750;;;12.6;75
68965;BME280;56017;48.680;8.998;2023-03-21T08:46:03;96740;;;12.7;75
68965;BME280;56017;48.680;8.998;2023-03-21T08:48:27;96750;;;12.8;75.5
68965;BME280;56017;48.680;8.998;2023-03-21T08:51:06;96740;;;13;75
68965;BME280;56017;48.680;8.998;2023-03-21T08:53:29;96750;;;13.1;74.5
68965;BME280;56017;48.680;8.998;2023-03-21T08:56:07;96750;;;13.2;75
68965;BME280;56017;48.680;8.998;2023-03-21T08:58:31;96740;;;13.3;74.5
68965;BME280;56017;48.680;8.998;2023-03-21T09:01:03;96740;;;13.2;74.5
68965;BME280;56017;48.680;8.998;2023-03-21T09:03:33;96740;;;13.2;75
68965;BME280;56017;48.680;8.998;2023-03-21T09:06:04;96740;;;13.3;75
68965;BME280;56017;48.680;8.998;2023-03-21T09:08:36;96740;;;13.4;74.5
68965;BME280;56017;48.680;8.998;2023-03-21T09:11:07;96740;;;13.3;75
68965;BME280;56017;48.680;8.998;2023-03-21T09:13:37;96740;;;13.4;75
68965;BME280;56017;48.680;8.998;2023-03-21T09:16:08;96740;;;13.6;75
68965;BME280;56017;48.680;8.998;2023-03-21T09:18:39;96740;;;13.7;75
68965;BME280;56017;48.680;8.998;2023-03-21T09:21:10;96740;;;13.8;74.5
68965;BME280;56017;48.680;8.998;2023-03-21T09:23:41;96740;;;14;75
68965;BME280;56017;48.680;8.998;2023-03-21T09:26:12;96740;;;14;74.5
68965;BME280;56017;48.680;8.998;2023-03-21T09:28:43;96740;;;14.2;74.5
68965;BME280;56017;48.680;8.998;2023-03-21T09:31:14;96740;;;14.3;75
68965;BME280;56017;48.680;8.998;2023-03-21T09:33:45;96730;;;14.8;74.5
68965;BME280;56017;48.680;8.998;2023-03-21T09:36:16;96740;;;15;74
68965;BME280;56017;48.680;8.998;2023-03-21T09:38:47;96740;;;14.9;74.5
68965;BME280;56017;48.680;8.998;2023-03-21T09:43:53;96740;;;15.7;74.5
68965;BME280;56017;48.680;8.998;2023-03-21T09:46:23;96730;;;15.8;73.5
68965;BME280;56017;48.680;8.998;2023-03-21T09:49:09;96730;;;15.4;74
68965;BME280;56017;48.680;8.998;2023-03-21T09:51:22;96730;;;15.2;74.5
68965;BME280;56017;48.680;8.998;2023-03-21T09:53:53;96720;;;15.4;75
68965;BME280;56017;48.680;8.998;2023-03-21T09:56:30;96720;;;15.6;75
68965;BME280;56017;48.680;8.998;2023-03-21T09:58:55;96720;;;16.1;75
68965;BME280;56017;48.680;8.998;2023-03-21T10:01:26;96720;;;16.7;75.5
68965;BME280;56017;48.680;8.998;2023-03-21T10:03:58;96720;;;17.6;75
68965;BME280;56017;48.680;8.998;2023-03-21T10:06:28;96710;;;17.9;73.5
68965;BME280;56017;48.680;8.998;2023-03-21T10:08:59;96710;;;18.5;73.5
68965;BME280;56017;48.680;8.998;2023-03-21T10:11:40;96700;;;18.8;72.5
68965;BME280;56017;48.680;8.998;2023-03-21T10:14:06;96700;;;18.4;72.5
68965;BME280;56017;48.680;8.998;2023-03-21T10:16:33;96700;;;18.1;73
68965;BME280;56017;48.680;8.998;2023-03-21T10:19:05;96700;;;17.6;72.5
68965;BME280;56017;48.680;8.998;2023-03-21T10:21:33;96700;;;17;73.5
68965;BME280;56017;48.680;8.998;2023-03-21T10:24:12;96700;;;16.6;74.5
68965;BME280;56017;48.680;8.998;2023-03-21T10:26:35;96690;;;16.6;75
68965;BME280;56017;48.680;8.998;2023-03-21T10:29:14;96700;;;16.9;74.5
68965;BME280;56017;48.680;8.998;2023-03-21T10:31:37;96690;;;17;75
68965;BME280;56017;48.680;8.998;2023-03-21T10:34:12;96690;;;17;74.5
68965;BME280;56017;48.680;8.998;2023-03-21T10:36:39;96690;;;16.7;74.5
68965;BME280;56017;48.680;8.998;2023-03-21T10:39:20;96690;;;16.5;75
68965;BME280;56017;48.680;8.998;2023-03-21T10:41:41;96690;;;16.5;75
68965;BME280;56017;48.680;8.998;2023-03-21T10:47:18;96700;;;16.1;75
68965;BME280;56017;48.680;8.998;2023-03-21T10:49:14;96700;;;16;75.5
68965;BME280;56017;48.680;8.998;2023-03-21T10:51:52;96700;;;16.1;76
68965;BME280;56017;48.680;8.998;2023-03-21T10:54:17;96700;;;16.2;75.5
68965;BME280;56017;48.680;8.998;2023-03-21T10:59:19;96700;;;16.2;75.5
68965;BME280;56017;48.680;8.998;2023-03-21T11:01:56;96700;;;16.1;75.5
68965;BME280;56017;48.680;8.998;2023-03-21T11:04:21;96700;;;16.1;75.5
68965;BME280;56017;48.680;8.998;2023-03-21T11:06:53;96700;;;16;75
68965;BME280;56017;48.680;8.998;2023-03-21T11:09:23;96700;;;15.8;76
68965;BME280;56017;48.680;8.998;2023-03-21T11:12:02;96690;;;15.8;75.5
68965;BME280;56017;48.680;8.998;2023-03-21T11:14:25;96690;;;15.9;75.5
68965;BME280;56017;48.680;8.998;2023-03-21T11:16:55;96690;;;15.9;75.5
68965;BME280;56017;48.680;8.998;2023-03-21T11:21:57;96690;;;15.7;76
68965;BME280;56017;48.680;8.998;2023-03-21T11:24:27;96690;;;15.8;76.5
68965;BME280;56017;48.680;8.998;2023-03-21T11:27:06;96680;;;16.1;75.5
68965;BME280;56017;48.680;8.998;2023-03-21T11:29:37;96680;;;16.1;75.5
68965;BME280;56017;48.680;8.998;2023-03-21T11:32:01;96680;;;16.3;75
68965;BME280;56017;48.680;8.998;2023-03-21T11:34:32;96680;;;16.2;75.5
68965;BME280;56017;48.680;8.998;2023-03-21T11:37:02;96680;;;16.2;75
68965;BME280;56017;48.680;8.998;2023-03-21T11:39:34;96670;;;16.2;75.5
68965;BME280;56017;48.680;8.998;2023-03-21T11:42:43;96670;;;16.3;75.5
68965;BME280;56017;48.680;8.998;2023-03-21T11:44:41;96660;;;16.3;76
68965;BME280;56017;48.680;8.998;2023-03-21T11:47:07;96660;;;16.4;75
68965;BME280;56017;48.680;8.998;2023-03-21T11:49:37;96660;;;16.2;75
68965;BME280;56017;48.680;8.998;2023-03-21T11:52:11;96650;;;16.3;75
68965;BME280;56017;48.680;8.998;2023-03-21T11:54:42;96650;;;16.2;75.5
68965;BME280;56017;48.680;8.998;2023-03-21T11:57:13;96640;;;16.1;76
68965;BME280;56017;48.680;8.998;2023-03-21T11:59:51;96640;;;16.3;75.5
68965;BME280;56017;48.680;8.998;2023-03-21T12:02:19;96640;;;16.4;75.5
68965;BME280;56017;48.680;8.998;2023-03-21T12:04:50;96640;;;16.3;75.5
68965;BME280;56017;48.680;8.998;2023-03-21T12:07:19;96630;;;16.3;75.5
68965;BME280;56017;48.680;8.998;2023-03-21T12:09:46;96630;;;16.4;75.5
68965;BME280;56017;48.680;8.998;2023-03-21T12:12:20;96630;;;16.3;75.5
68965;BME280;56017;48.680;8.998;2023-03-21T12:14:51;96630;;;16.4;75.5
68965;BME280;56017;48.680;8.998;2023-03-21T12:17:29;96620;;;16.5;75
68965;BME280;56017;48.680;8.998;2023-03-21T12:19:52;96610;;;16.9;75
68965;BME280;56017;48.680;8.998;2023-03-21T12:22:26;96610;;;17;74.5
68965;BME280;56017;48.680;8.998;2023-03-21T12:27:24;96610;;;17.3;74.5
68965;BME280;56017;48.680;8.998;2023-03-21T12:32:34;96600;;;17.7;74.5
68965;BME280;56017;48.680;8.998;2023-03-21T12:35:01;96590;;;17.7;74
68965;BME280;56017;48.680;8.998;2023-03-21T12:37:51;96590;;;17.8;74.5
68965;BME280;56017;48.680;8.998;2023-03-21T12:40:03;96590;;;18.4;74.5
68965;BME280;56017;48.680;8.998;2023-03-21T12:42:33;96580;;;18.7;73.5
68965;BME280;56017;48.680;8.998;2023-03-21T12:45:01;96590;;;18.7;73
68965;BME280;56017;48.680;8.998;2023-03-21T12:47:30;96580;;;18.6;72.5
68965;BME280;56017;48.680;8.998;2023-03-21T12:50:32;96580;;;18.5;73
68965;BME280;56017;48.680;8.998;2023-03-21T12:52:33;96580;;;18.4;73
68965;BME280;56017;48.680;8.998;2023-03-21T12:55:19;96580;;;18.4;73
68965;BME280;56017;48.680;8.998;2023-03-21T12:57:35;96580;;;18.5;73.5
68965;BME280;56017;48.680;8.998;2023-03-21T13:01:07;96580;;;18.5;74
68965;BME280;56017;48.680;8.998;2023-03-21T13:02:37;96580;;;18.7;74
68965;BME280;56017;48.680;8.998;2023-03-21T13:07:45;96570;;;18.9;74.5
68965;BME280;56017;48.680;8.998;2023-03-21T13:10:13;96570;;;18.8;74.5
68965;BME280;56017;48.680;8.998;2023-03-21T13:15:18;96570;;;18.7;75
68965;BME280;56017;48.680;8.998;2023-03-21T13:17:42;96570;;;18.9;74
68965;BME280;56017;48.680;8.998;2023-03-21T13:20:15;96570;;;18.7;74
68965;BME280;56017;48.680;8.998;2023-03-21T13:25:18;96570;;;18.5;74
68965;BME280;56017;48.680;8.998;2023-03-21T13:27:53;96560;;;18.4;74
68965;BME280;56017;48.680;8.998;2023-03-21T13:30:17;96560;;;18.5;74.5
68965;BME280;56017;48.680;8.998;2023-03-21T13:33:02;96560;;;18.4;74
68965;BME280;56017;48.680;8.998;2023-03-21T13:35:40;96560;;;18.1;74
68965;BME280;56017;48.680;8.998;2023-03-21T13:37:50;96560;;;17.7;74.5
68965;BME280;56017;48.680;8.998;2023-03-21T13:42:58;96560;;;17.5;75
68965;BME280;56017;48.680;8.998;2023-03-21T13:47:53;96550;;;17.4;75
68965;BME280;56017;48.680;8.998;2023-03-21T13:50:25;96540;;;17.3;75
68965;BME280;56017;48.680;8.998;2023-03-21T13:53:15;96530;;;17.3;75
68965;BME280;56017;48.680;8.998;2023-03-21T13:55:26;96530;;;17.4;75
68965;BME280;56017;48.680;8.998;2023-03-21T13:59:08;96530;;;17.4;75.5
68965;BME280;56017;48.680;8.998;2023-03-21T14:00:28;96530;;;17.4;75.5
68965;BME280;56017;48.680;8.998;2023-03-21T14:02:59;96530;;;17.5;75
68965;BME280;56017;48.680;8.998;2023-03-21T14:05:29;96530;;;17.5;74.5
68965;BME280;56017;48.680;8.998;2023-03-21T14:08:00;96530;;;17.3;74.5
68965;BME280;56017;48.680;8.998;2023-03-21T14:10:33;96520;;;17.3;75
68965;BME280;56017;48.680;8.998;2023-03-21T14:13:03;96510;;;17.5;75
68965;BME280;56017;48.680;8.998;2023-03-21T14:16:06;96510;;;17.7;75
68965;BME280;56017;48.680;8.998;2023-03-21T14:18:04;96510;;;18;74.5
68965;BME280;56017;48.680;8.998;2023-03-21T14:20:35;96510;;;18.2;73.5
68965;BME280;56017;48.680;8.998;2023-03-21T14:23:07;96510;;;18.2;73.5
68965;BME280;56017;48.680;8.998;2023-03-21T14:25:37;96500;;;18.4;73.5
68965;BME280;56017;48.680;8.998;2023-03-21T14:28:30;96500;;;18.4;73.5
68965;BME280;56017;48.680;8.998;2023-03-21T14:30:40;96510;;;18.5;73.5
68965;BME280;56017;48.680;8.998;2023-03-21T14:33:26;96500;;;18.4;73
68965;BME280;56017;48.680;8.998;2023-03-21T14:35:41;96500;;;18.1;73.5
68965;BME280;56017;48.680;8.998;2023-03-21T14:38:20;96490;;;18;73.5
68965;BME280;56017;48.680;8.998;2023-03-21T14:40:47;96490;;;17.9;74
68965;BME280;56017;48.680;8.998;2023-03-21T14:43:21;96490;;;18.2;74
68965;BME280;56017;48.680;8.998;2023-03-21T14:45:46;96490;;;18.6;74
68965;BME280;56017;48.680;8.998;2023-03-21T14:48:16;96490;;;18.7;73
68965;BME280;56017;48.680;8.998;2023-03-21T14:50:50;96480;;;18.7;73
68965;BME280;56017;48.680;8.998;2023-03-21T14:53:20;96480;;;18.8;73.5
68965;BME280;56017;48.680;8.998;2023-03-21T14:55:53;96480;;;19.1;74
68965;BME280;56017;48.680;8.998;2023-03-21T14:58:20;96480;;;19.3;73
68965;BME280;56017;48.680;8.998;2023-03-21T15:00:53;96470;;;19.3;72.5
68965;BME280;56017;48.680;8.998;2023-03-21T15:03:22;96480;;;19.3;73
68965;BME280;56017;48.680;8.998;2023-03-21T15:05:53;96470;;;19.7;73
68965;BME280;56017;48.680;8.998;2023-03-21T15:08:24;96470;;;20.1;72.5
68965;BME280;56017;48.680;8.998;2023-03-21T15:10:56;96470;;;20.2;72
68965;BME280;56017;48.680;8.998;2023-03-21T15:13:27;96460;;;20.2;72
68965;BME280;56017;48.680;8.998;2023-03-21T15:15:57;96470;;;20.1;72